sensor_id;sensor_type;location;lat;lon;timestamp;pressure;altitude;pressure_sealevel;temperature;humidity
22753;BME280;11543;43.144;24.684;2024-01-15T00:01:29;98269.72;;;2.52;56.61
22753;BME280;11543;43.144;24.684;2024-01-15T00:03:54;98271.28;;;2.55;57.27
22753;BME280;11543;43.144;24.684;2024-01-15T00:06:20;98285.03;;;2.60;57.64
22753;BME280;11543;43.144;24.684;2024-01-15T00:08:46;98269.09;;;2.38;56.68
22753;BME280;11543;43.144;24.684;2024-01-15T00:11:11;98268.72;;;2.31;56.78
22753;BME280;11543;43.144;24.684;2024-01-15T00:13:37;98271.09;;;2.23;56.38
22753;BME280;11543;43.144;24.684;2024-01-15T00:16:04;98290.81;;;2.19;55.82
22753;BME280;11543;43.144;24.684;2024-01-15T00:18:29;98255.19;;;2.01;56.45
22753;BME280;11543;43.144;24.684;2024-01-15T00:20:55;98256.41;;;2.08;57.33
22753;BME280;11543;43.144;24.684;2024-01-15T00:23:20;98264.13;;;2.22;57.75
22753;BME280;11543;43.144;24.684;2024-01-15T00:25:46;98239.81;;;2.17;57.87
22753;BME280;11543;43.144;24.684;2024-01-15T00:28:11;98271.16;;;2.45;58.14
22753;BME280;11543;43.144;24.684;2024-01-15T00:30:37;98267.53;;;2.46;58.28
22753;BME280;11543;43.144;24.684;2024-01-15T00:33:03;98235.28;;;2.30;57.86
22753;BME280;11543;43.144;24.684;2024-01-15T00:35:28;98282.09;;;2.52;57.90
22753;BME280;11543;43.144;24.684;2024-01-15T00:37:54;98263.91;;;2.25;57.63
22753;BME280;11543;43.144;24.684;2024-01-15T00:40:19;98278.09;;;2.24;58.01
22753;BME280;11543;43.144;24.684;2024-01-15T00:42:45;98242.75;;;1.90;57.75
22753;BME280;11543;43.144;24.684;2024-01-15T00:45:10;98238.81;;;1.72;57.21
22753;BME280;11543;43.144;24.684;2024-01-15T00:47:36;98255.03;;;1.67;57.28
22753;BME280;11543;43.144;24.684;2024-01-15T00:50:01;98245.03;;;1.59;57.69
22753;BME280;11543;43.144;24.684;2024-01-15T00:52:27;98252.63;;;1.64;58.03
22753;BME280;11543;43.144;24.684;2024-01-15T00:54:52;98258.94;;;1.74;58.31
22753;BME280;11543;43.144;24.684;2024-01-15T00:57:18;98255.09;;;1.78;58.12
22753;BME280;11543;43.144;24.684;2024-01-15T00:59:44;98226.03;;;1.54;58.08
22753;BME280;11543;43.144;24.684;2024-01-15T01:02:10;98239.75;;;1.59;57.66
22753;BME280;11543;43.144;24.684;2024-01-15T01:04:35;98252.91;;;1.72;57.84
22753;BME280;11543;43.144;24.684;2024-01-15T01:07:01;98244.13;;;1.72;58.29
22753;BME280;11543;43.144;24.684;2024-01-15T01:09:27;98234.38;;;1.72;58.34
22753;BME280;11543;43.144;24.684;2024-01-15T01:11:55;98195.16;;;1.55;58.65
22753;BME280;11543;43.144;24.684;2024-01-15T01:14:21;98189.84;;;1.55;58.61
22753;BME280;11543;43.144;24.684;2024-01-15T01:16:47;98197.56;;;1.58;58.30
22753;BME280;11543;43.144;24.684;2024-01-15T01:19:12;98215.00;;;1.60;58.41
22753;BME280;11543;43.144;24.684;2024-01-15T01:21:38;98214.84;;;1.51;58.26
22753;BME280;11543;43.144;24.684;2024-01-15T01:24:04;98217.38;;;1.52;58.47
22753;BME280;11543;43.144;24.684;2024-01-15T01:26:30;98213.31;;;1.59;58.89
22753;BME280;11543;43.144;24.684;2024-01-15T01:28:56;98236.97;;;1.61;58.93
22753;BME280;11543;43.144;24.684;2024-01-15T01:31:23;98221.66;;;1.42;58.32
22753;BME280;11543;43.144;24.684;2024-01-15T01:33:49;98226.53;;;1.36;58.11
22753;BME280;11543;43.144;24.684;2024-01-15T01:36:14;98237.97;;;1.36;58.26
22753;BME280;11543;43.144;24.684;2024-01-15T01:38:40;98245.25;;;1.33;58.62
22753;BME280;11543;43.144;24.684;2024-01-15T01:41:06;98222.38;;;1.20;58.96
22753;BME280;11543;43.144;24.684;2024-01-15T01:43:32;98246.22;;;1.32;58.79
22753;BME280;11543;43.144;24.684;2024-01-15T01:46:00;98204.44;;;0.89;58.42
22753;BME280;11543;43.144;24.684;2024-01-15T01:48:26;98231.13;;;0.97;58.52
22753;BME280;11543;43.144;24.684;2024-01-15T01:50:58;98246.81;;;1.11;58.92
22753;BME280;11543;43.144;24.684;2024-01-15T01:53:25;98228.59;;;0.95;59.01
22753;BME280;11543;43.144;24.684;2024-01-15T01:55:52;98198.66;;;0.71;59.12
22753;BME280;11543;43.144;24.684;2024-01-15T01:58:19;98233.47;;;0.89;59.39
22753;BME280;11543;43.144;24.684;2024-01-15T02:00:46;98223.09;;;0.86;59.21
22753;BME280;11543;43.144;24.684;2024-01-15T02:03:12;98231.66;;;1.02;60.68
22753;BME280;11543;43.144;24.684;2024-01-15T02:05:39;98232.50;;;1.26;60.72
22753;BME280;11543;43.144;24.684;2024-01-15T02:08:05;98220.81;;;1.42;60.70
22753;BME280;11543;43.144;24.684;2024-01-15T02:10:31;98216.75;;;1.49;60.58
22753;BME280;11543;43.144;24.684;2024-01-15T02:12:56;98219.22;;;1.63;60.71
22753;BME280;11543;43.144;24.684;2024-01-15T02:15:22;98209.84;;;1.70;60.19
22753;BME280;11543;43.144;24.684;2024-01-15T02:18:02;98200.97;;;1.71;60.43
22753;BME280;11543;43.144;24.684;2024-01-15T02:20:28;98215.94;;;1.83;59.92
22753;BME280;11543;43.144;24.684;2024-01-15T02:22:53;98187.53;;;1.74;59.85
22753;BME280;11543;43.144;24.684;2024-01-15T02:25:19;98186.13;;;1.81;59.72
22753;BME280;11543;43.144;24.684;2024-01-15T02:27:46;98186.59;;;1.75;59.34
22753;BME280;11543;43.144;24.684;2024-01-15T02:30:13;98177.16;;;1.71;59.19
22753;BME280;11543;43.144;24.684;2024-01-15T02:32:38;98187.56;;;1.85;59.62
22753;BME280;11543;43.144;24.684;2024-01-15T02:35:04;98192.63;;;1.88;59.78
22753;BME280;11543;43.144;24.684;2024-01-15T02:37:30;98140.81;;;1.51;59.90
22753;BME280;11543;43.144;24.684;2024-01-15T02:39:55;98184.91;;;1.74;59.95
22753;BME280;11543;43.144;24.684;2024-01-15T02:42:21;98135.00;;;1.35;60.04
22753;BME280;11543;43.144;24.684;2024-01-15T02:44:46;98130.41;;;1.25;59.50
22753;BME280;11543;43.144;24.684;2024-01-15T02:47:14;98135.69;;;1.25;60.18
22753;BME280;11543;43.144;24.684;2024-01-15T02:49:39;98149.78;;;1.37;60.48
22753;BME280;11543;43.144;24.684;2024-01-15T02:52:05;98146.81;;;1.42;60.30
22753;BME280;11543;43.144;24.684;2024-01-15T02:54:31;98132.88;;;1.40;60.14
22753;BME280;11543;43.144;24.684;2024-01-15T02:56:56;98155.75;;;1.63;60.05
22753;BME280;11543;43.144;24.684;2024-01-15T02:59:22;98169.03;;;1.74;60.12
22753;BME280;11543;43.144;24.684;2024-01-15T03:01:47;98166.88;;;1.79;59.80
22753;BME280;11543;43.144;24.684;2024-01-15T03:04:12;98171.44;;;1.77;59.81
22753;BME280;11543;43.144;24.684;2024-01-15T03:06:38;98121.59;;;1.49;60.08
22753;BME280;11543;43.144;24.684;2024-01-15T03:09:04;98124.34;;;1.47;60.22
22753;BME280;11543;43.144;24.684;2024-01-15T03:11:29;98131.91;;;1.41;60.26
22753;BME280;11543;43.144;24.684;2024-01-15T03:13:54;98154.91;;;1.63;60.39
22753;BME280;11543;43.144;24.684;2024-01-15T03:16:20;98134.84;;;1.60;60.31
22753;BME280;11543;43.144;24.684;2024-01-15T03:18:46;98132.31;;;1.58;60.34
22753;BME280;11543;43.144;24.684;2024-01-15T03:21:11;98127.88;;;1.59;59.58
22753;BME280;11543;43.144;24.684;2024-01-15T03:23:36;98124.50;;;1.57;59.54
22753;BME280;11543;43.144;24.684;2024-01-15T03:26:02;98119.69;;;1.62;59.34
22753;BME280;11543;43.144;24.684;2024-01-15T03:28:28;98128.00;;;1.69;58.90
22753;BME280;11543;43.144;24.684;2024-01-15T03:30:55;98101.66;;;1.56;59.00
22753;BME280;11543;43.144;24.684;2024-01-15T03:33:21;98110.31;;;1.58;58.73
22753;BME280;11543;43.144;24.684;2024-01-15T03:35:46;98116.09;;;1.63;58.62
22753;BME280;11543;43.144;24.684;2024-01-15T03:38:12;98128.53;;;1.74;58.42
22753;BME280;11543;43.144;24.684;2024-01-15T03:40:37;98116.81;;;1.65;58.10
22753;BME280;11543;43.144;24.684;2024-01-15T03:43:03;98116.81;;;1.65;58.17
22753;BME280;11543;43.144;24.684;2024-01-15T03:45:28;98116.81;;;1.65;58.17
22753;BME280;11543;43.144;24.684;2024-01-15T03:47:54;98082.91;;;1.48;58.50
22753;BME280;11543;43.144;24.684;2024-01-15T03:50:19;98083.16;;;1.45;58.68
22753;BME280;11543;43.144;24.684;2024-01-15T03:52:48;98140.28;;;1.70;59.03
22753;BME280;11543;43.144;24.684;2024-01-15T03:55:13;98107.88;;;1.44;59.49
22753;BME280;11543;43.144;24.684;2024-01-15T03:57:39;98105.94;;;1.35;59.60
22753;BME280;11543;43.144;24.684;2024-01-15T04:00:05;98062.16;;;1.08;59.71
22753;BME280;11543;43.144;24.684;2024-01-15T04:02:30;98092.66;;;1.12;59.57
22753;BME280;11543;43.144;24.684;2024-01-15T04:04:56;98102.53;;;1.21;60.01
22753;BME280;11543;43.144;24.684;2024-01-15T04:07:21;98100.81;;;1.09;60.43
22753;BME280;11543;43.144;24.684;2024-01-15T04:09:47;98076.28;;;0.96;60.65
22753;BME280;11543;43.144;24.684;2024-01-15T04:12:12;98096.03;;;1.14;61.05
22753;BME280;11543;43.144;24.684;2024-01-15T04:14:38;98087.38;;;1.12;61.30
22753;BME280;11543;43.144;24.684;2024-01-15T04:17:03;98081.63;;;1.18;60.72
22753;BME280;11543;43.144;24.684;2024-01-15T04:19:29;98085.63;;;1.24;60.90
22753;BME280;11543;43.144;24.684;2024-01-15T04:21:54;98069.38;;;1.17;61.07
22753;BME280;11543;43.144;24.684;2024-01-15T04:24:20;98089.13;;;1.36;60.85
22753;BME280;11543;43.144;24.684;2024-01-15T04:26:45;98082.63;;;1.28;60.81
22753;BME280;11543;43.144;24.684;2024-01-15T04:29:11;98089.38;;;1.33;60.61
22753;BME280;11543;43.144;24.684;2024-01-15T04:31:37;98033.78;;;0.99;60.84
22753;BME280;11543;43.144;24.684;2024-01-15T04:34:02;98064.59;;;1.22;60.52
22753;BME280;11543;43.144;24.684;2024-01-15T04:36:28;98063.75;;;1.22;60.50
22753;BME280;11543;43.144;24.684;2024-01-15T04:38:53;98062.19;;;1.19;60.38
22753;BME280;11543;43.144;24.684;2024-01-15T04:41:19;98070.84;;;1.21;60.58
22753;BME280;11543;43.144;24.684;2024-01-15T04:43:46;98090.78;;;1.25;60.64
22753;BME280;11543;43.144;24.684;2024-01-15T04:46:11;98060.25;;;0.86;60.81
22753;BME280;11543;43.144;24.684;2024-01-15T04:48:37;98044.31;;;0.64;60.99
22753;BME280;11543;43.144;24.684;2024-01-15T04:51:08;98036.22;;;0.54;61.11
22753;BME280;11543;43.144;24.684;2024-01-15T04:53:34;98049.31;;;0.56;61.24
22753;BME280;11543;43.144;24.684;2024-01-15T04:56:00;98067.50;;;0.72;61.88
22753;BME280;11543;43.144;24.684;2024-01-15T04:58:25;98035.94;;;0.46;61.96
22753;BME280;11543;43.144;24.684;2024-01-15T05:00:52;98054.53;;;0.69;62.11
22753;BME280;11543;43.144;24.684;2024-01-15T05:03:18;98049.19;;;0.57;62.19
22753;BME280;11543;43.144;24.684;2024-01-15T05:05:43;98057.94;;;0.58;62.26
22753;BME280;11543;43.144;24.684;2024-01-15T05:08:09;98030.31;;;0.27;61.46
22753;BME280;11543;43.144;24.684;2024-01-15T05:10:34;98065.34;;;0.29;60.57
22753;BME280;11543;43.144;24.684;2024-01-15T05:13:00;98054.00;;;0.16;60.26
22753;BME280;11543;43.144;24.684;2024-01-15T05:15:25;98067.31;;;0.02;61.03
22753;BME280;11543;43.144;24.684;2024-01-15T05:17:51;98041.41;;;-0.68;62.28
22753;BME280;11543;43.144;24.684;2024-01-15T05:20:16;98031.25;;;-0.87;62.76
22753;BME280;11543;43.144;24.684;2024-01-15T05:22:42;98066.91;;;-0.69;63.00
22753;BME280;11543;43.144;24.684;2024-01-15T05:25:07;98029.34;;;-1.10;63.70
22753;BME280;11543;43.144;24.684;2024-01-15T05:27:33;98029.13;;;-1.07;64.13
22753;BME280;11543;43.144;24.684;2024-01-15T05:29:58;98060.06;;;-0.84;64.15
22753;BME280;11543;43.144;24.684;2024-01-15T05:32:24;98038.44;;;-0.89;64.58
22753;BME280;11543;43.144;24.684;2024-01-15T05:34:49;98041.78;;;-0.87;64.68
22753;BME280;11543;43.144;24.684;2024-01-15T05:37:15;98053.22;;;-0.74;64.52
22753;BME280;11543;43.144;24.684;2024-01-15T05:39:41;98038.69;;;-0.79;65.28
22753;BME280;11543;43.144;24.684;2024-01-15T05:42:07;98050.59;;;-0.48;65.87
22753;BME280;11543;43.144;24.684;2024-01-15T05:44:32;98040.78;;;-0.34;66.06
22753;BME280;11543;43.144;24.684;2024-01-15T05:46:58;98038.41;;;-0.13;66.25
22753;BME280;11543;43.144;24.684;2024-01-15T05:49:23;98026.16;;;-0.01;66.17
22753;BME280;11543;43.144;24.684;2024-01-15T05:51:49;98004.22;;;-0.02;65.67
22753;BME280;11543;43.144;24.684;2024-01-15T05:54:14;98007.75;;;0.23;65.33
22753;BME280;11543;43.144;24.684;2024-01-15T05:56:40;97980.31;;;0.25;64.86
22753;BME280;11543;43.144;24.684;2024-01-15T05:59:05;97999.22;;;0.43;64.65
22753;BME280;11543;43.144;24.684;2024-01-15T06:01:31;98019.59;;;0.65;64.72
22753;BME280;11543;43.144;24.684;2024-01-15T06:03:56;98045.47;;;0.84;63.97
22753;BME280;11543;43.144;24.684;2024-01-15T06:06:22;98016.38;;;0.73;64.09
22753;BME280;11543;43.144;24.684;2024-01-15T06:08:47;98026.94;;;0.73;63.97
22753;BME280;11543;43.144;24.684;2024-01-15T06:11:13;98012.03;;;0.60;64.05
22753;BME280;11543;43.144;24.684;2024-01-15T06:13:38;98009.09;;;0.52;63.42
22753;BME280;11543;43.144;24.684;2024-01-15T06:16:13;98025.94;;;0.62;63.96
22753;BME280;11543;43.144;24.684;2024-01-15T06:18:39;98031.00;;;0.66;63.88
22753;BME280;11543;43.144;24.684;2024-01-15T06:21:04;98029.47;;;0.74;64.37
22753;BME280;11543;43.144;24.684;2024-01-15T06:23:30;98023.34;;;0.74;64.87
22753;BME280;11543;43.144;24.684;2024-01-15T06:25:58;98025.31;;;0.83;64.70
22753;BME280;11543;43.144;24.684;2024-01-15T06:28:23;98012.09;;;0.83;64.97
22753;BME280;11543;43.144;24.684;2024-01-15T06:30:49;97995.88;;;0.76;64.75
22753;BME280;11543;43.144;24.684;2024-01-15T06:33:14;98012.78;;;0.74;64.51
22753;BME280;11543;43.144;24.684;2024-01-15T06:35:40;98023.34;;;0.74;64.29
22753;BME280;11543;43.144;24.684;2024-01-15T06:38:05;98021.41;;;0.64;64.73
22753;BME280;11543;43.144;24.684;2024-01-15T06:40:31;98011.53;;;0.55;64.70
22753;BME280;11543;43.144;24.684;2024-01-15T06:42:57;97993.50;;;0.49;65.02
22753;BME280;11543;43.144;24.684;2024-01-15T06:45:23;97998.31;;;0.55;65.58
22753;BME280;11543;43.144;24.684;2024-01-15T06:47:48;98002.19;;;0.62;66.28
22753;BME280;11543;43.144;24.684;2024-01-15T06:50:13;97992.16;;;0.79;66.60
22753;BME280;11543;43.144;24.684;2024-01-15T06:52:39;98029.97;;;1.03;66.84
22753;BME280;11543;43.144;24.684;2024-01-15T06:55:05;97998.41;;;0.78;66.28
22753;BME280;11543;43.144;24.684;2024-01-15T06:57:31;97994.72;;;0.56;66.31
22753;BME280;11543;43.144;24.684;2024-01-15T06:59:56;98031.53;;;0.82;66.18
22753;BME280;11543;43.144;24.684;2024-01-15T07:02:22;98013.47;;;0.64;66.74
22753;BME280;11543;43.144;24.684;2024-01-15T07:04:47;98022.41;;;0.51;67.42
22753;BME280;11543;43.144;24.684;2024-01-15T07:07:13;98023.34;;;0.74;67.97
22753;BME280;11543;43.144;24.684;2024-01-15T07:09:38;98031.97;;;0.88;67.66
22753;BME280;11543;43.144;24.684;2024-01-15T07:12:05;98022.00;;;0.92;67.88
22753;BME280;11543;43.144;24.684;2024-01-15T07:14:31;97985.31;;;0.76;67.72
22753;BME280;11543;43.144;24.684;2024-01-15T07:16:56;97998.72;;;0.97;67.95
22753;BME280;11543;43.144;24.684;2024-01-15T07:19:22;98001.41;;;1.08;67.77
22753;BME280;11543;43.144;24.684;2024-01-15T07:21:47;98003.34;;;1.28;67.81
22753;BME280;11543;43.144;24.684;2024-01-15T07:24:13;98007.81;;;1.50;67.34
22753;BME280;11543;43.144;24.684;2024-01-15T07:26:38;98021.16;;;1.71;67.27
22753;BME280;11543;43.144;24.684;2024-01-15T07:29:04;97974.44;;;1.49;66.99
22753;BME280;11543;43.144;24.684;2024-01-15T07:31:30;97954.25;;;1.48;67.38
22753;BME280;11543;43.144;24.684;2024-01-15T07:33:56;97999.31;;;1.80;66.75
22753;BME280;11543;43.144;24.684;2024-01-15T07:36:22;97977.19;;;1.70;66.68
22753;BME280;11543;43.144;24.684;2024-01-15T07:38:47;98007.00;;;1.95;66.64
22753;BME280;11543;43.144;24.684;2024-01-15T07:41:13;98017.34;;;1.98;66.54
22753;BME280;11543;43.144;24.684;2024-01-15T07:43:40;97978.28;;;1.68;66.31
22753;BME280;11543;43.144;24.684;2024-01-15T07:46:06;98016.16;;;1.90;66.43
22753;BME280;11543;43.144;24.684;2024-01-15T07:48:32;98005.81;;;1.87;66.50
22753;BME280;11543;43.144;24.684;2024-01-15T07:50:57;98003.03;;;1.89;67.10
22753;BME280;11543;43.144;24.684;2024-01-15T07:53:23;98008.44;;;1.99;67.41
22753;BME280;11543;43.144;24.684;2024-01-15T07:55:48;97962.19;;;1.82;67.28
22753;BME280;11543;43.144;24.684;2024-01-15T07:58:14;97961.06;;;1.96;67.10
22753;BME280;11543;43.144;24.684;2024-01-15T08:00:39;97993.97;;;2.25;66.63
22753;BME280;11543;43.144;24.684;2024-01-15T08:03:05;97996.78;;;2.44;66.76
22753;BME280;11543;43.144;24.684;2024-01-15T08:05:33;97997.00;;;2.52;66.56
22753;BME280;11543;43.144;24.684;2024-01-15T08:07:58;97982.22;;;2.50;66.41
22753;BME280;11543;43.144;24.684;2024-01-15T08:10:24;97969.34;;;2.45;66.41
22753;BME280;11543;43.144;24.684;2024-01-15T08:12:50;97974.59;;;2.56;66.59
22753;BME280;11543;43.144;24.684;2024-01-15T08:15:15;97988.94;;;2.65;66.57
22753;BME280;11543;43.144;24.684;2024-01-15T08:17:41;97964.72;;;2.59;67.10
22753;BME280;11543;43.144;24.684;2024-01-15T08:20:06;97973.16;;;2.64;67.24
22753;BME280;11543;43.144;24.684;2024-01-15T08:22:32;97955.38;;;2.54;67.06
22753;BME280;11543;43.144;24.684;2024-01-15T08:24:58;97964.50;;;2.62;67.52
22753;BME280;11543;43.144;24.684;2024-01-15T08:27:23;97975.75;;;2.75;67.31
22753;BME280;11543;43.144;24.684;2024-01-15T08:29:49;97975.72;;;2.86;67.68
22753;BME280;11543;43.144;24.684;2024-01-15T08:32:14;97970.78;;;2.81;67.84
22753;BME280;11543;43.144;24.684;2024-01-15T08:34:41;97988.19;;;2.95;67.78
22753;BME280;11543;43.144;24.684;2024-01-15T08:37:07;97952.63;;;2.77;68.36
22753;BME280;11543;43.144;24.684;2024-01-15T08:39:32;97963.31;;;2.86;68.45
22753;BME280;11543;43.144;24.684;2024-01-15T08:41:58;97988.00;;;3.08;68.29
22753;BME280;11543;43.144;24.684;2024-01-15T08:44:23;97953.94;;;3.03;68.43
22753;BME280;11543;43.144;24.684;2024-01-15T08:46:49;97968.00;;;3.25;68.17
22753;BME280;11543;43.144;24.684;2024-01-15T08:49:14;97945.66;;;3.17;67.83
22753;BME280;11543;43.144;24.684;2024-01-15T08:51:40;97933.09;;;3.19;68.10
22753;BME280;11543;43.144;24.684;2024-01-15T08:54:05;97949.31;;;3.47;67.32
22753;BME280;11543;43.144;24.684;2024-01-15T08:56:33;97910.31;;;3.38;67.22
22753;BME280;11543;43.144;24.684;2024-01-15T08:58:59;97924.94;;;3.53;67.49
22753;BME280;11543;43.144;24.684;2024-01-15T09:01:25;97893.75;;;3.45;67.17
22753;BME280;11543;43.144;24.684;2024-01-15T09:03:50;97910.41;;;3.57;67.19
22753;BME280;11543;43.144;24.684;2024-01-15T09:06:16;97921.91;;;3.67;67.15
22753;BME280;11543;43.144;24.684;2024-01-15T09:08:42;97914.91;;;3.66;67.41
22753;BME280;11543;43.144;24.684;2024-01-15T09:11:07;97894.25;;;3.60;67.31
22753;BME280;11543;43.144;24.684;2024-01-15T09:13:33;97902.34;;;3.59;67.36
22753;BME280;11543;43.144;24.684;2024-01-15T09:15:58;97891.44;;;3.52;67.52
22753;BME280;11543;43.144;24.684;2024-01-15T09:18:25;97883.91;;;3.57;67.88
22753;BME280;11543;43.144;24.684;2024-01-15T09:20:50;97871.75;;;3.55;67.93
22753;BME280;11543;43.144;24.684;2024-01-15T09:23:16;97881.97;;;3.69;67.79
22753;BME280;11543;43.144;24.684;2024-01-15T09:25:42;97846.22;;;3.63;68.25
22753;BME280;11543;43.144;24.684;2024-01-15T09:28:08;97845.69;;;3.69;68.67
22753;BME280;11543;43.144;24.684;2024-01-15T09:30:33;97850.75;;;3.92;68.31
22753;BME280;11543;43.144;24.684;2024-01-15T09:32:59;97849.78;;;4.02;68.22
22753;BME280;11543;43.144;24.684;2024-01-15T09:35:25;97839.03;;;4.04;68.31
22753;BME280;11543;43.144;24.684;2024-01-15T09:37:50;97851.88;;;4.28;68.53
22753;BME280;11543;43.144;24.684;2024-01-15T09:40:20;97809.13;;;4.11;68.75
22753;BME280;11543;43.144;24.684;2024-01-15T09:42:46;97842.69;;;4.41;68.23
22753;BME280;11543;43.144;24.684;2024-01-15T09:45:15;97799.91;;;4.25;68.48
22753;BME280;11543;43.144;24.684;2024-01-15T09:47:41;97797.81;;;4.38;68.45
22753;BME280;11543;43.144;24.684;2024-01-15T09:50:10;97812.06;;;4.57;68.72
22753;BME280;11543;43.144;24.684;2024-01-15T09:52:36;97810.94;;;4.59;68.61
22753;BME280;11543;43.144;24.684;2024-01-15T09:55:03;97801.72;;;4.54;68.93
22753;BME280;11543;43.144;24.684;2024-01-15T09:57:31;97808.28;;;4.50;69.49
22753;BME280;11543;43.144;24.684;2024-01-15T09:59:57;97786.78;;;4.43;70.21
22753;BME280;11543;43.144;24.684;2024-01-15T10:02:24;97759.66;;;4.39;70.04
22753;BME280;11543;43.144;24.684;2024-01-15T10:04:50;97762.28;;;4.59;69.29
22753;BME280;11543;43.144;24.684;2024-01-15T10:07:16;97733.25;;;4.47;69.40
22753;BME280;11543;43.144;24.684;2024-01-15T10:09:44;97750.09;;;4.66;69.07
22753;BME280;11543;43.144;24.684;2024-01-15T10:12:11;97732.09;;;4.60;68.88
22753;BME280;11543;43.144;24.684;2024-01-15T10:14:37;97772.16;;;4.76;68.93
22753;BME280;11543;43.144;24.684;2024-01-15T10:17:12;97745.38;;;4.50;70.05
22753;BME280;11543;43.144;24.684;2024-01-15T10:19:40;97742.59;;;4.52;71.40
22753;BME280;11543;43.144;24.684;2024-01-15T10:22:08;97712.00;;;4.47;71.72
22753;BME280;11543;43.144;24.684;2024-01-15T10:24:36;97729.66;;;4.76;71.48
22753;BME280;11543;43.144;24.684;2024-01-15T10:27:10;97699.78;;;4.64;72.11
22753;BME280;11543;43.144;24.684;2024-01-15T10:29:38;97703.47;;;4.81;72.10
22753;BME280;11543;43.144;24.684;2024-01-15T10:32:07;97716.97;;;4.97;71.75
22753;BME280;11543;43.144;24.684;2024-01-15T10:34:40;97726.22;;;4.93;71.35
22753;BME280;11543;43.144;24.684;2024-01-15T10:37:09;97713.31;;;4.98;71.61
22753;BME280;11543;43.144;24.684;2024-01-15T10:39:35;97693.72;;;4.99;71.12
22753;BME280;11543;43.144;24.684;2024-01-15T10:42:01;97672.47;;;4.99;70.60
22753;BME280;11543;43.144;24.684;2024-01-15T10:44:29;97691.53;;;5.22;70.13
22753;BME280;11543;43.144;24.684;2024-01-15T10:46:55;97668.16;;;5.16;69.98
22753;BME280;11543;43.144;24.684;2024-01-15T10:49:22;97707.66;;;5.38;70.17
22753;BME280;11543;43.144;24.684;2024-01-15T10:51:50;97674.31;;;5.17;70.37
22753;BME280;11543;43.144;24.684;2024-01-15T10:54:17;97698.91;;;5.46;70.93
22753;BME280;11543;43.144;24.684;2024-01-15T10:56:45;97673.59;;;5.42;70.76
22753;BME280;11543;43.144;24.684;2024-01-15T10:59:12;97690.09;;;5.63;71.26
22753;BME280;11543;43.144;24.684;2024-01-15T11:01:39;97692.59;;;5.83;71.75
22753;BME280;11543;43.144;24.684;2024-01-15T11:04:05;97663.94;;;5.76;72.17
22753;BME280;11543;43.144;24.684;2024-01-15T11:06:44;97673.66;;;6.03;71.83
22753;BME280;11543;43.144;24.684;2024-01-15T11:09:10;97669.63;;;6.17;69.87
22753;BME280;11543;43.144;24.684;2024-01-15T11:11:43;97653.03;;;6.23;69.97
22753;BME280;11543;43.144;24.684;2024-01-15T11:14:09;97642.56;;;6.30;71.30
22753;BME280;11543;43.144;24.684;2024-01-15T11:17:01;97663.53;;;6.59;70.54
22753;BME280;11543;43.144;24.684;2024-01-15T11:22:07;97649.84;;;6.54;69.54
22753;BME280;11543;43.144;24.684;2024-01-15T11:24:40;97657.88;;;6.62;70.18
22753;BME280;11543;43.144;24.684;2024-01-15T11:27:07;97621.88;;;6.50;69.79
22753;BME280;11543;43.144;24.684;2024-01-15T11:29:34;97642.63;;;6.72;70.00
22753;BME280;11543;43.144;24.684;2024-01-15T11:32:07;97658.06;;;6.94;70.02
22753;BME280;11543;43.144;24.684;2024-01-15T11:35:01;97655.41;;;7.02;69.86
22753;BME280;11543;43.144;24.684;2024-01-15T11:37:29;97647.75;;;6.99;69.85
22753;BME280;11543;43.144;24.684;2024-01-15T11:40:18;97632.00;;;6.88;69.98
22753;BME280;11543;43.144;24.684;2024-01-15T11:42:44;97647.06;;;6.97;69.75
22753;BME280;11543;43.144;24.684;2024-01-15T11:45:11;97640.06;;;6.96;69.86
22753;BME280;11543;43.144;24.684;2024-01-15T11:48:02;97649.06;;;6.95;70.64
22753;BME280;11543;43.144;24.684;2024-01-15T11:50:33;97631.41;;;6.94;71.06
22753;BME280;11543;43.144;24.684;2024-01-15T11:53:01;97641.41;;;7.00;71.15
22753;BME280;11543;43.144;24.684;2024-01-15T11:55:33;97636.25;;;7.07;71.31
22753;BME280;11543;43.144;24.684;2024-01-15T11:58:00;97593.75;;;6.97;70.98
22753;BME280;11543;43.144;24.684;2024-01-15T12:00:26;97615.47;;;7.27;72.39
22753;BME280;11543;43.144;24.684;2024-01-15T12:02:52;97591.44;;;7.19;72.60
22753;BME280;11543;43.144;24.684;2024-01-15T12:05:19;97628.00;;;7.51;73.20
22753;BME280;11543;43.144;24.684;2024-01-15T12:07:48;97616.16;;;7.53;71.57
22753;BME280;11543;43.144;24.684;2024-01-15T12:10:17;97599.16;;;7.46;70.63
22753;BME280;11543;43.144;24.684;2024-01-15T12:15:25;97632.50;;;7.50;69.70
22753;BME280;11543;43.144;24.684;2024-01-15T12:17:52;97584.13;;;7.21;69.97
22753;BME280;11543;43.144;24.684;2024-01-15T12:20:17;97613.13;;;7.32;69.97
22753;BME280;11543;43.144;24.684;2024-01-15T12:22:43;97610.31;;;7.33;69.85
22753;BME280;11543;43.144;24.684;2024-01-15T12:25:10;97619.97;;;7.34;70.17
22753;BME280;11543;43.144;24.684;2024-01-15T12:27:35;97618.16;;;7.35;70.43
22753;BME280;11543;43.144;24.684;2024-01-15T12:30:01;97600.13;;;7.37;70.55
22753;BME280;11543;43.144;24.684;2024-01-15T12:32:27;97589.81;;;7.50;70.77
22753;BME280;11543;43.144;24.684;2024-01-15T12:34:52;97600.81;;;7.63;71.34
22753;BME280;11543;43.144;24.684;2024-01-15T12:37:18;97596.50;;;7.87;71.56
22753;BME280;11543;43.144;24.684;2024-01-15T12:39:47;97599.66;;;7.98;71.89
22753;BME280;11543;43.144;24.684;2024-01-15T12:42:16;97593.97;;;8.02;70.17
22753;BME280;11543;43.144;24.684;2024-01-15T12:44:43;97564.41;;;8.03;70.05
22753;BME280;11543;43.144;24.684;2024-01-15T12:47:10;97594.09;;;8.24;69.53
22753;BME280;11543;43.144;24.684;2024-01-15T12:49:38;97581.06;;;8.21;69.01
22753;BME280;11543;43.144;24.684;2024-01-15T12:52:08;97570.06;;;8.16;69.21
22753;BME280;11543;43.144;24.684;2024-01-15T12:54:35;97575.91;;;8.20;69.11
22753;BME280;11543;43.144;24.684;2024-01-15T12:57:00;97574.91;;;8.13;69.36
22753;BME280;11543;43.144;24.684;2024-01-15T12:59:26;97570.09;;;8.08;69.46
22753;BME280;11543;43.144;24.684;2024-01-15T13:01:52;97576.91;;;8.11;69.33